SBOSBO DUB / EIDW
Speedbird OnlineSpeedbird Online DUB / EIDW

Dublin Airport
00:41 12.5°C

Location Dublin, Ireland
Latitude: 53.421299
Longitude: -6.27007
Local Time 00:41 on 22 Jun 2024
UTC +1 hours (Europe/Dublin)
Currency £1 equals EUR 1.18
METAR EIDW 212300Z 26007KT 210V280 9999 FEW013 SCT017 BKN050 13/10 Q1008 NOSIG
TAF TAF EIDW 211700Z 2118/2218 16009KT 9999 FEW010 BKN025 BECMG 2118/2120 26010KT TEMPO 2118/2120 -RA BKN012 PROB30 TEMPO 2118/2119 4000 RA BKN009 BECMG 2205/2207 22008KT
Weather As Of 22 Jun 2024 00:29
Description Broken clouds
Wind 19 km/h from West (250°)
Cloud Cover 75%
Precipitation Rain: none, Snow: none
Sunrise 04:56
Sunset 21:57
NOTAM 33 active NOTAM
Rotations During the last 90 days there were
464 flights from LHR
400 flights from LCY
25 flights from LGW
2 flights from DUB
463 flights to LHR
400 flights to LCY
21 flights to LGW
2 flights to DUB
Lounges The East Lounge , 1
Dublin Airport Executive Lounge, Main Departures Area
51st & Green US Pre-Clearance Lounge, Terminal 2
Web Airport Website | Wikipedia
Codes IATA: DUB
ICAO: EIDW
Altitude 74 Meter / 242 Feet
Distance 483 KM / 300 Miles
from London.
Runways
RunwayLength (m)Surface
10R2637ASPH
111339Asphalt
162072Asphalt
28L2637ASPH
291339Asphalt
342072Asphalt
Radio
TypeDescriptionFrequency
APPAPP121.1
ATISATIS124.525
CLDCLNC DEL121.875
GNDGND121.8
INFOFIS118.5
TWRTWR118.6
Live ATC



Support Speedbird Online

© 2017-2024 Speedbird Online